createdAt,value
2022-10-06T00:00:44.650Z,99585.09
2022-10-06T00:03:14.770Z,99603.97
2022-10-06T00:05:46.493Z,99590.41
2022-10-06T00:08:17.276Z,99591.31
2022-10-06T00:10:47.661Z,99593.19
2022-10-06T00:13:19.501Z,99591.25
2022-10-06T00:15:49.403Z,99602.00
2022-10-06T00:18:19.758Z,99597.66
2022-10-06T00:20:56.610Z,99601.59
2022-10-06T00:23:28.419Z,99590.38
2022-10-06T00:26:04.701Z,99598.56
2022-10-06T00:28:37.394Z,99594.94
2022-10-06T00:31:08.338Z,99598.53
2022-10-06T00:33:39.050Z,99600.66
2022-10-06T00:36:10.216Z,99598.81
2022-10-06T00:38:41.060Z,99604.28
2022-10-06T00:41:16.371Z,99600.91
2022-10-06T00:43:51.448Z,99598.56
2022-10-06T00:46:27.108Z,99602.19
2022-10-06T00:49:04.887Z,99604.03
2022-10-06T00:51:36.554Z,99595.47
2022-10-06T00:54:07.543Z,99590.78
2022-10-06T00:56:40.682Z,99595.09
2022-10-06T00:59:15.631Z,99595.13
2022-10-06T01:02:04.567Z,99597.19
2022-10-06T01:04:38.669Z,99596.94
2022-10-06T01:07:10.293Z,99602.88
2022-10-06T01:09:40.455Z,99602.00
2022-10-06T01:12:11.024Z,99607.69
2022-10-06T01:14:43.432Z,99609.75
2022-10-06T01:17:18.685Z,99614.69
2022-10-06T01:19:51.062Z,99616.59
2022-10-06T01:22:29.444Z,99615.75
2022-10-06T01:25:00.917Z,99619.19
2022-10-06T01:27:36.157Z,99613.59
2022-10-06T01:30:09.143Z,99604.72
2022-10-06T01:32:41.663Z,99606.38
2022-10-06T01:35:12.482Z,99603.53
2022-10-06T01:37:45.439Z,99601.78
2022-10-06T01:40:15.557Z,99607.69
2022-10-06T01:42:45.652Z,99600.88
2022-10-06T01:45:15.530Z,99603.41
2022-10-06T01:47:45.196Z,99598.69
2022-10-06T01:50:15.139Z,99600.50
2022-10-06T01:52:48.470Z,99604.38
2022-10-06T01:55:22.998Z,99609.22
2022-10-06T01:57:54.395Z,99611.28
2022-10-06T02:00:24.730Z,99613.00
2022-10-06T02:02:54.740Z,99617.38
2022-10-06T02:05:25.162Z,99614.16
2022-10-06T02:08:01.302Z,99615.19
2022-10-06T02:10:34.146Z,99617.94
2022-10-06T02:13:07.729Z,99620.38
2022-10-06T02:15:39.361Z,99610.22
2022-10-06T02:18:09.059Z,99609.22
2022-10-06T02:20:38.989Z,99606.38
2022-10-06T02:23:10.547Z,99615.59
2022-10-06T02:25:40.642Z,99613.44
2022-10-06T02:28:10.772Z,99605.47
2022-10-06T02:30:40.990Z,99603.13
2022-10-06T02:33:11.056Z,99604.59
2022-10-06T02:35:43.270Z,99604.31
2022-10-06T02:38:15.026Z,99597.75
2022-10-06T02:40:46.390Z,99602.91
2022-10-06T02:43:16.729Z,99608.09
2022-10-06T02:46:15.018Z,99606.59
2022-10-06T02:48:50.776Z,99606.34
2022-10-06T02:51:23.130Z,99604.03
2022-10-06T02:53:55.738Z,99605.81
2022-10-06T02:59:18.332Z,99610.47
2022-10-06T03:02:11.585Z,99615.91
2022-10-06T03:09:19.863Z,99607.50
2022-10-06T03:11:54.771Z,99614.69
2022-10-06T03:14:33.515Z,99612.72
2022-10-06T03:17:03.924Z,99600.63
2022-10-06T03:19:34.782Z,99607.88
2022-10-06T03:22:05.364Z,99603.56
2022-10-06T03:25:17.321Z,99604.91
2022-10-06T03:27:48.242Z,99609.44
2022-10-06T03:30:18.893Z,99603.75
2022-10-06T03:32:50.007Z,99617.09
2022-10-06T03:35:20.469Z,99612.16
2022-10-06T03:37:50.650Z,99614.25
2022-10-06T03:40:22.889Z,99607.75
2022-10-06T03:42:53.163Z,99616.22
2022-10-06T03:45:58.935Z,99610.59
2022-10-06T03:48:29.422Z,99612.16
2022-10-06T03:51:00.104Z,99613.47
2022-10-06T03:53:32.449Z,99608.59
2022-10-06T03:56:08.355Z,99609.28
2022-10-06T03:58:44.083Z,99612.78
2022-10-06T04:01:45.396Z,99624.94
2022-10-06T04:04:18.360Z,99618.91
2022-10-06T04:06:51.988Z,99623.38
2022-10-06T04:09:23.210Z,99627.91
2022-10-06T04:11:58.034Z,99624.47
2022-10-06T04:14:42.974Z,99631.31
2022-10-06T04:17:19.854Z,99636.59
2022-10-06T04:19:53.301Z,99629.19
2022-10-06T04:22:25.910Z,99634.84
2022-10-06T04:25:13.080Z,99641.84
2022-10-06T04:28:20.629Z,99639.69
2022-10-06T04:30:59.754Z,99640.72
2022-10-06T04:33:31.165Z,99633.03
2022-10-06T04:36:08.258Z,99642.38
2022-10-06T04:38:40.721Z,99645.53
2022-10-06T04:41:22.718Z,99641.34
2022-10-06T04:44:06.254Z,99647.38
2022-10-06T04:47:01.929Z,99644.09
2022-10-06T04:50:02.327Z,99649.53
2022-10-06T04:52:34.788Z,99643.78
2022-10-06T04:55:36.634Z,99637.69
2022-10-06T04:58:34.212Z,99647.91
2022-10-06T05:01:17.444Z,99656.59
2022-10-06T05:03:52.245Z,99655.28
2022-10-06T05:06:25.179Z,99659.66
2022-10-06T05:09:00.028Z,99659.22
2022-10-06T05:11:32.334Z,99673.44
2022-10-06T05:14:06.618Z,99651.72
2022-10-06T05:17:12.061Z,99650.38
2022-10-06T05:19:47.232Z,99657.59
2022-10-06T05:22:43.605Z,99649.06
2022-10-06T05:25:14.931Z,99655.09
2022-10-06T05:34:17.985Z,99651.88
2022-10-06T05:37:44.177Z,99657.69
2022-10-06T05:40:54.571Z,99651.31
2022-10-06T05:43:58.657Z,99650.94
2022-10-06T05:47:46.469Z,99659.22
2022-10-06T05:50:21.253Z,99661.63
2022-10-06T05:53:13.475Z,99662.91
2022-10-06T05:55:51.721Z,99657.88
2022-10-06T05:58:41.369Z,99655.53
2022-10-06T06:01:23.388Z,99659.34
2022-10-06T06:04:08.459Z,99652.53
2022-10-06T06:07:38.784Z,99656.09
2022-10-06T06:10:18.546Z,99652.69
2022-10-06T06:13:01.707Z,99661.38
2022-10-06T06:16:06.160Z,99664.47
2022-10-06T06:18:44.259Z,99660.06
2022-10-06T06:21:31.192Z,99653.28
2022-10-06T06:24:06.855Z,99652.44
2022-10-06T06:27:07.587Z,99658.09
2022-10-06T06:29:42.085Z,99650.50
2022-10-06T06:32:26.317Z,99656.16
2022-10-06T06:35:26.981Z,99661.69
2022-10-06T06:38:20.383Z,99656.41
2022-10-06T06:40:55.204Z,99653.69
2022-10-06T06:43:34.619Z,99664.44
2022-10-06T06:47:08.767Z,99663.38
2022-10-06T06:49:46.628Z,99664.72
2022-10-06T06:52:21.976Z,99663.25
2022-10-06T06:54:56.386Z,99673.19
2022-10-06T06:57:30.214Z,99664.34
2022-10-06T07:00:09.030Z,99661.63
2022-10-06T07:03:01.175Z,99650.63
2022-10-06T07:05:42.065Z,99659.13
2022-10-06T07:08:29.300Z,99656.69
2022-10-06T07:11:03.169Z,99656.16
2022-10-06T07:13:50.915Z,99664.66
2022-10-06T07:16:40.635Z,99657.44
2022-10-06T07:19:53.158Z,99652.44
2022-10-06T07:22:47.915Z,99658.03
2022-10-06T07:25:26.456Z,99655.59
2022-10-06T07:28:15.605Z,99649.72
2022-10-06T07:31:10.884Z,99649.53
2022-10-06T07:33:43.231Z,99646.41
2022-10-06T07:36:21.133Z,99644.69
2022-10-06T07:38:51.907Z,99650.13
2022-10-06T07:41:22.404Z,99654.03
2022-10-06T07:43:56.779Z,99645.81
2022-10-06T07:46:30.072Z,99655.31
2022-10-06T07:49:06.093Z,99650.56
2022-10-06T07:51:38.026Z,99648.19
2022-10-06T07:54:09.475Z,99645.88
2022-10-06T07:56:52.090Z,99649.88
2022-10-06T07:59:23.120Z,99649.13
2022-10-06T08:01:53.159Z,99644.38
2022-10-06T08:04:29.653Z,99633.06
2022-10-06T08:07:18.431Z,99632.00
2022-10-06T08:09:49.570Z,99624.38
2022-10-06T08:12:38.133Z,99629.06
2022-10-06T08:15:20.589Z,99628.03
2022-10-06T08:17:54.759Z,99625.66
2022-10-06T08:20:27.844Z,99619.69
2022-10-06T08:22:59.115Z,99624.59
2022-10-06T08:25:32.135Z,99619.53
2022-10-06T08:28:02.343Z,99623.06
2022-10-06T08:30:35.287Z,99622.47
2022-10-06T08:33:10.873Z,99623.06
2022-10-06T08:35:43.809Z,99615.84
2022-10-06T08:38:15.258Z,99630.69
2022-10-06T08:40:47.907Z,99623.91
2022-10-06T08:43:25.172Z,99620.75
2022-10-06T08:46:05.548Z,99631.44
2022-10-06T08:54:00.977Z,99640.19
2022-10-06T09:05:29.849Z,99645.50
2022-10-06T09:08:25.835Z,99637.19
2022-10-06T09:11:44.117Z,99644.59
2022-10-06T09:14:21.036Z,99644.25
2022-10-06T09:17:09.385Z,99648.84
2022-10-06T09:19:45.647Z,99642.88
2022-10-06T09:22:22.728Z,99645.56
2022-10-06T09:25:06.234Z,99649.91
2022-10-06T09:27:41.217Z,99649.88
2022-10-06T09:30:14.648Z,99652.50
2022-10-06T09:32:49.069Z,99652.09
2022-10-06T09:35:23.836Z,99649.47
2022-10-06T09:38:08.351Z,99652.34
2022-10-06T09:40:45.580Z,99652.06
2022-10-06T09:43:29.452Z,99644.06
2022-10-06T09:46:23.089Z,99655.50
2022-10-06T09:49:32.332Z,99649.78
2022-10-06T09:52:20.181Z,99647.16
2022-10-06T09:55:24.078Z,99645.50
2022-10-06T09:57:58.662Z,99651.00
2022-10-06T10:00:35.077Z,99654.16
2022-10-06T10:03:08.656Z,99654.41
2022-10-06T10:05:42.662Z,99659.97
2022-10-06T10:08:26.346Z,99656.34
2022-10-06T10:11:28.298Z,99658.97
2022-10-06T10:14:06.102Z,99656.09
2022-10-06T10:16:53.117Z,99658.50
2022-10-06T10:19:33.781Z,99650.94
2022-10-06T10:22:05.854Z,99656.34
2022-10-06T10:24:55.723Z,99650.19
2022-10-06T10:27:37.569Z,99641.84
2022-10-06T10:30:11.923Z,99641.16
2022-10-06T10:32:51.423Z,99632.69
2022-10-06T10:35:28.048Z,99628.88
2022-10-06T10:38:05.849Z,99626.00
2022-10-06T10:40:40.544Z,99624.38
2022-10-06T10:43:20.262Z,99623.50
2022-10-06T10:45:55.584Z,99620.44
2022-10-06T10:48:34.152Z,99630.34
2022-10-06T10:51:08.708Z,99637.38
2022-10-06T10:53:47.816Z,99623.16
2022-10-06T10:56:22.980Z,99622.75
2022-10-06T10:58:56.995Z,99617.84
2022-10-06T11:01:35.592Z,99601.31
2022-10-06T11:04:12.931Z,99604.88
2022-10-06T11:07:01.237Z,99606.91
2022-10-06T11:09:41.032Z,99607.16
2022-10-06T11:12:20.483Z,99612.16
2022-10-06T11:15:08.109Z,99603.78
2022-10-06T11:17:46.176Z,99616.47
2022-10-06T11:20:48.615Z,99622.16
2022-10-06T11:23:45.090Z,99625.22
2022-10-06T11:26:25.693Z,99628.72
2022-10-06T11:29:01.627Z,99628.06
2022-10-06T11:31:36.282Z,99623.19
2022-10-06T11:34:07.938Z,99626.84
2022-10-06T11:36:49.655Z,99627.44
2022-10-06T11:39:28.525Z,99633.22
2022-10-06T11:47:01.359Z,99627.56
2022-10-06T11:50:02.331Z,99623.03
2022-10-06T11:52:57.619Z,99629.84
2022-10-06T11:56:47.197Z,99620.31
2022-10-06T12:03:50.861Z,99623.94
2022-10-06T12:07:40.968Z,99625.09
2022-10-06T12:10:50.055Z,99626.22
2022-10-06T12:17:06.008Z,99631.22
2022-10-06T12:19:35.588Z,99621.44
2022-10-06T12:22:19.628Z,99624.41
2022-10-06T12:25:17.043Z,99623.94
2022-10-06T12:28:11.362Z,99621.22
2022-10-06T12:31:30.194Z,99608.13
2022-10-06T12:34:10.410Z,99604.84
2022-10-06T12:36:45.169Z,99601.63
2022-10-06T12:39:24.603Z,99596.63
2022-10-06T12:45:32.714Z,99597.38
2022-10-06T12:48:22.470Z,99582.09
2022-10-06T12:55:41.717Z,99580.41
2022-10-06T12:58:19.729Z,99587.31
2022-10-06T13:00:53.686Z,99585.72
2022-10-06T13:03:27.629Z,99586.53
2022-10-06T13:06:03.620Z,99580.72
2022-10-06T13:08:36.015Z,99575.81
2022-10-06T13:11:16.929Z,99580.72
2022-10-06T13:14:15.035Z,99580.28
2022-10-06T13:16:57.529Z,99583.66
2022-10-06T13:19:31.687Z,99582.09
2022-10-06T13:22:04.787Z,99574.94
2022-10-06T13:24:41.572Z,99577.75
2022-10-06T13:27:21.639Z,99582.78
2022-10-06T13:30:13.841Z,99580.28
2022-10-06T13:36:17.979Z,99581.19
2022-10-06T13:38:48.707Z,99576.88
2022-10-06T13:41:28.516Z,99582.38
2022-10-06T13:44:02.159Z,99588.66
2022-10-06T13:46:44.644Z,99586.19
2022-10-06T13:49:22.789Z,99585.63
2022-10-06T13:52:00.661Z,99588.47
2022-10-06T13:54:49.866Z,99598.22
2022-10-06T13:58:17.610Z,99600.84
2022-10-06T14:00:51.662Z,99594.94
2022-10-06T14:03:25.716Z,99596.53
2022-10-06T14:06:50.656Z,99597.00
2022-10-06T14:09:30.206Z,99596.88
2022-10-06T14:12:07.305Z,99597.22
2022-10-06T14:14:38.113Z,99597.78
2022-10-06T14:17:30.803Z,99599.84
2022-10-06T14:20:44.426Z,99603.94
2022-10-06T14:23:57.364Z,99598.00
2022-10-06T14:26:33.195Z,99602.56
2022-10-06T14:29:18.065Z,99607.44
2022-10-06T14:31:51.060Z,99605.72
2022-10-06T14:34:25.824Z,99600.28
2022-10-06T14:37:22.093Z,99603.13
2022-10-06T14:39:55.527Z,99608.69
2022-10-06T14:42:42.646Z,99607.69
2022-10-06T14:45:17.668Z,99607.13
2022-10-06T14:47:49.399Z,99603.69
2022-10-06T14:50:23.053Z,99611.09
2022-10-06T14:53:36.669Z,99605.16
2022-10-06T14:58:23.996Z,99610.97
2022-10-06T15:01:53.121Z,99603.03
2022-10-06T15:04:53.930Z,99612.19
2022-10-06T15:07:47.202Z,99617.75
2022-10-06T15:10:21.511Z,99617.66
2022-10-06T15:12:57.738Z,99622.09
2022-10-06T15:16:46.364Z,99618.34
2022-10-06T15:19:35.997Z,99620.03
2022-10-06T15:22:19.753Z,99619.38
2022-10-06T15:35:19.248Z,99613.00
2022-10-06T15:37:56.200Z,99608.34
2022-10-06T15:40:38.149Z,99602.97
2022-10-06T15:43:58.213Z,99603.19
2022-10-06T15:46:36.378Z,99611.84
2022-10-06T15:49:28.158Z,99603.75
2022-10-06T15:52:51.650Z,99600.72
2022-10-06T15:55:27.882Z,99602.06
2022-10-06T15:57:58.608Z,99601.81
2022-10-06T16:00:54.339Z,99601.16
2022-10-06T16:04:14.302Z,99596.81
2022-10-06T16:08:46.741Z,99599.56
2022-10-06T16:12:38.617Z,99587.50
2022-10-06T16:16:25.712Z,99589.09
2022-10-06T16:19:23.164Z,99585.44
2022-10-06T16:22:23.784Z,99592.94
2022-10-06T16:25:57.972Z,99599.41
2022-10-06T16:42:34.725Z,99592.06
2022-10-06T16:45:07.754Z,99587.66
2022-10-06T16:47:43.790Z,99589.78
2022-10-06T16:50:17.159Z,99583.16
2022-10-06T16:53:16.831Z,99582.00
2022-10-06T16:56:11.815Z,99588.16
2022-10-06T16:58:56.398Z,99580.00
2022-10-06T17:01:41.859Z,99570.00
2022-10-06T17:04:16.377Z,99574.53
2022-10-06T17:06:50.780Z,99576.81
2022-10-06T17:09:22.531Z,99577.84
2022-10-06T17:11:59.238Z,99579.22
2022-10-06T17:15:19.415Z,99580.47
2022-10-06T17:18:01.404Z,99578.75
2022-10-06T17:20:46.020Z,99581.59
2022-10-06T17:23:38.438Z,99584.53
2022-10-06T17:26:18.045Z,99583.97
2022-10-06T17:28:50.413Z,99575.88
2022-10-06T17:31:32.733Z,99582.28
2022-10-06T17:34:09.396Z,99573.88
2022-10-06T17:39:35.659Z,99566.81
2022-10-06T17:42:14.367Z,99566.38
2022-10-06T17:45:20.281Z,99558.19
2022-10-06T17:48:02.997Z,99559.22
2022-10-06T17:50:42.388Z,99552.38
2022-10-06T17:53:27.034Z,99551.16
2022-10-06T17:55:59.978Z,99550.91
2022-10-06T17:58:41.403Z,99540.25
2022-10-06T18:01:19.038Z,99539.56
2022-10-06T18:03:55.950Z,99529.34
2022-10-06T18:06:32.206Z,99529.34
2022-10-06T18:09:04.240Z,99527.09
2022-10-06T18:11:36.899Z,99526.84
2022-10-06T18:14:38.367Z,99516.53
2022-10-06T18:17:10.640Z,99524.00
2022-10-06T18:19:50.264Z,99509.34
2022-10-06T18:22:23.533Z,99504.22
2022-10-06T18:27:53.000Z,99514.09
2022-10-06T18:30:29.330Z,99503.22
2022-10-06T18:36:18.312Z,99499.44
2022-10-06T18:38:56.285Z,99501.69
2022-10-06T18:41:32.765Z,99497.84
2022-10-06T18:44:14.019Z,99493.22
2022-10-06T18:47:19.607Z,99492.78
2022-10-06T18:50:00.146Z,99492.31
2022-10-06T18:53:11.793Z,99490.84
2022-10-06T18:55:49.946Z,99490.03
2022-10-06T18:58:28.459Z,99496.53
2022-10-06T19:00:59.567Z,99488.13
2022-10-06T19:03:34.040Z,99487.41
2022-10-06T19:06:35.194Z,99491.19
2022-10-06T19:09:45.347Z,99487.44
2022-10-06T19:12:20.725Z,99485.75
2022-10-06T19:14:56.138Z,99489.84
2022-10-06T19:17:38.111Z,99490.28
2022-10-06T19:20:33.210Z,99495.50
2022-10-06T19:23:23.010Z,99490.41
2022-10-06T19:26:11.614Z,99484.13
2022-10-06T19:28:54.277Z,99485.75
2022-10-06T19:31:30.332Z,99480.41
2022-10-06T19:34:02.401Z,99475.06
2022-10-06T19:37:49.051Z,99481.78
2022-10-06T19:45:19.169Z,99472.91
2022-10-06T19:52:48.452Z,99475.81
2022-10-06T19:56:14.448Z,99465.63
2022-10-06T19:59:19.460Z,99471.88
2022-10-06T20:01:57.787Z,99467.34
2022-10-06T20:04:32.381Z,99477.34
2022-10-06T20:07:02.714Z,99468.25
2022-10-06T20:09:34.110Z,99476.63
2022-10-06T20:12:04.103Z,99469.03
2022-10-06T20:14:34.900Z,99459.81
2022-10-06T20:17:18.971Z,99453.69
2022-10-06T20:19:52.786Z,99466.66
2022-10-06T20:22:30.557Z,99465.19
2022-10-06T20:25:08.485Z,99460.50
2022-10-06T20:27:41.504Z,99463.00
2022-10-06T20:30:27.734Z,99456.41
2022-10-06T20:33:18.362Z,99458.03
2022-10-06T20:35:49.024Z,99457.88
2022-10-06T20:38:43.891Z,99458.81
2022-10-06T20:41:18.059Z,99468.47
2022-10-06T20:44:01.101Z,99468.91
2022-10-06T20:46:46.032Z,99469.13
2022-10-06T20:49:24.473Z,99468.91
2022-10-06T20:56:25.349Z,99467.44
2022-10-06T20:59:08.067Z,99465.53
2022-10-06T21:01:41.307Z,99464.16
2022-10-06T21:04:11.906Z,99458.38
2022-10-06T21:06:47.344Z,99459.16
2022-10-06T21:09:51.906Z,99455.50
2022-10-06T21:12:28.700Z,99458.13
2022-10-06T21:15:04.183Z,99466.88
2022-10-06T21:17:39.778Z,99451.66
2022-10-06T21:20:10.385Z,99463.34
2022-10-06T21:22:41.734Z,99460.75
2022-10-06T21:25:13.807Z,99453.94
2022-10-06T21:27:44.537Z,99454.19
2022-10-06T21:30:14.989Z,99458.69
2022-10-06T21:32:45.627Z,99454.84
2022-10-06T21:35:16.523Z,99458.59
2022-10-06T21:37:47.531Z,99460.97
2022-10-06T21:40:19.678Z,99453.72
2022-10-06T21:42:48.961Z,99462.09
2022-10-06T21:45:21.015Z,99475.97
2022-10-06T21:47:53.289Z,99465.94
2022-10-06T21:50:22.957Z,99473.19
2022-10-06T21:52:53.974Z,99465.69
2022-10-06T21:55:25.452Z,99470.91
2022-10-06T21:57:55.605Z,99477.25
2022-10-06T22:00:27.476Z,99472.53
2022-10-06T22:02:58.275Z,99461.84
2022-10-06T22:05:29.138Z,99480.69
2022-10-06T22:08:00.829Z,99479.09
2022-10-06T22:10:30.287Z,99479.19
2022-10-06T22:13:00.169Z,99479.75
2022-10-06T22:15:33.203Z,99477.19
2022-10-06T22:18:02.485Z,99482.97
2022-10-06T22:20:34.664Z,99482.97
2022-10-06T22:23:15.325Z,99487.84
2022-10-06T22:25:44.600Z,99492.38
2022-10-06T22:28:14.540Z,99501.00
2022-10-06T22:30:44.174Z,99490.56
2022-10-06T22:33:13.847Z,99488.31
2022-10-06T22:35:52.064Z,99489.44
2022-10-06T22:38:24.178Z,99503.28
2022-10-06T22:40:53.765Z,99502.63
2022-10-06T22:43:23.017Z,99498.06
2022-10-06T22:45:52.289Z,99497.28
2022-10-06T22:48:21.890Z,99492.19
2022-10-06T22:50:52.502Z,99490.84
2022-10-06T22:53:28.560Z,99499.81
2022-10-06T22:56:23.916Z,99495.66
2022-10-06T22:58:53.442Z,99499.25
2022-10-06T23:01:23.053Z,99502.13
2022-10-06T23:03:56.705Z,99497.91
2022-10-06T23:06:27.124Z,99485.22
2022-10-06T23:08:57.937Z,99493.03
2022-10-06T23:11:27.254Z,99487.69
2022-10-06T23:13:57.163Z,99477.47
2022-10-06T23:16:31.507Z,99487.91
2022-10-06T23:19:05.447Z,99486.78
2022-10-06T23:21:35.267Z,99487.31
2022-10-06T23:24:06.826Z,99491.50
2022-10-06T23:26:38.115Z,99503.22
2022-10-06T23:29:07.729Z,99497.22
2022-10-06T23:31:36.863Z,99493.44
2022-10-06T23:34:06.170Z,99502.88
2022-10-06T23:36:35.872Z,99507.41
2022-10-06T23:39:06.417Z,99507.22
2022-10-06T23:41:35.629Z,99498.94
2022-10-06T23:44:06.169Z,99517.22
2022-10-06T23:46:37.159Z,99499.84
2022-10-06T23:49:10.260Z,99510.06
2022-10-06T23:51:41.479Z,99509.50
2022-10-06T23:54:12.554Z,99512.81
2022-10-06T23:56:41.869Z,99510.22
2022-10-06T23:59:11.385Z,99510.56
